createdAt,value
2022-11-26T00:00:12.244Z,164.617
2022-11-26T00:00:32.399Z,164.633
2022-11-26T00:00:52.378Z,164.617
2022-11-26T00:01:12.453Z,164.583
2022-11-26T00:01:32.496Z,164.633
2022-11-26T00:01:52.676Z,164.617
2022-11-26T00:02:12.803Z,164.65
2022-11-26T00:02:32.847Z,164.617
2022-11-26T00:02:52.853Z,164.617
2022-11-26T00:03:12.865Z,164.617
2022-11-26T00:03:32.939Z,164.617
2022-11-26T00:03:52.911Z,164.583
2022-11-26T00:04:12.958Z,164.633
2022-11-26T00:04:33.008Z,164.583
2022-11-26T00:04:53.089Z,164.583
2022-11-26T00:05:13.156Z,164.617
2022-11-26T00:05:33.314Z,164.617
2022-11-26T00:05:53.271Z,164.617
2022-11-26T00:06:13.308Z,164.617
2022-11-26T00:06:33.367Z,164.617
2022-11-26T00:06:53.409Z,164.583
2022-11-26T00:07:13.517Z,164.617
2022-11-26T00:07:33.595Z,164.633
2022-11-26T00:07:53.639Z,164.617
2022-11-26T00:08:13.632Z,164.583
2022-11-26T00:08:33.680Z,164.65
2022-11-26T00:08:53.758Z,164.633
2022-11-26T00:09:13.860Z,164.617
2022-11-26T00:09:33.930Z,164.617
2022-11-26T00:09:54.022Z,164.617
2022-11-26T00:10:14.072Z,164.583
2022-11-26T00:10:34.218Z,164.583
2022-11-26T00:10:54.143Z,164.583
2022-11-26T00:11:14.204Z,164.617
2022-11-26T00:11:34.253Z,164.617
2022-11-26T00:11:54.306Z,164.583
2022-11-26T00:12:14.374Z,164.617
2022-11-26T00:12:34.470Z,164.617
2022-11-26T00:12:54.505Z,164.583
2022-11-26T00:13:14.549Z,164.617
2022-11-26T00:13:34.619Z,164.633
2022-11-26T00:13:54.663Z,164.617
2022-11-26T00:14:14.718Z,164.617
2022-11-26T00:14:35.142Z,164.617
2022-11-26T00:14:54.822Z,164.617
2022-11-26T00:15:14.860Z,164.617
2022-11-26T00:15:35.062Z,164.617
2022-11-26T00:15:55.000Z,164.583
2022-11-26T00:16:15.155Z,164.583
2022-11-26T00:16:35.223Z,164.617
2022-11-26T00:16:55.321Z,164.617
2022-11-26T00:17:15.317Z,164.617
2022-11-26T00:17:35.341Z,164.583
2022-11-26T00:17:55.411Z,164.633
2022-11-26T00:18:15.430Z,164.617
2022-11-26T00:18:35.499Z,164.617
2022-11-26T00:18:55.567Z,164.617
2022-11-26T00:19:15.610Z,164.633
2022-11-26T00:19:35.685Z,164.583
2022-11-26T00:19:55.736Z,164.617
2022-11-26T00:20:15.799Z,164.633
2022-11-26T00:20:36.003Z,164.65
2022-11-26T00:20:55.944Z,164.633
2022-11-26T00:21:15.995Z,164.617
2022-11-26T00:21:36.033Z,164.65
2022-11-26T00:21:56.084Z,164.633
2022-11-26T00:22:16.130Z,164.633
2022-11-26T00:22:36.183Z,164.633
2022-11-26T00:22:56.226Z,164.683
2022-11-26T00:23:16.276Z,164.633
2022-11-26T00:23:36.337Z,164.65
2022-11-26T00:23:56.375Z,164.65
2022-11-26T00:24:16.438Z,164.633
2022-11-26T00:24:36.929Z,164.65
2022-11-26T00:24:56.534Z,164.65
2022-11-26T00:25:16.602Z,164.633
2022-11-26T00:25:36.772Z,164.633
2022-11-26T00:25:56.712Z,164.633
2022-11-26T00:26:16.790Z,164.633
2022-11-26T00:26:36.856Z,164.633
2022-11-26T00:26:56.887Z,164.617
2022-11-26T00:27:16.924Z,164.617
2022-11-26T00:27:36.984Z,164.633
2022-11-26T00:27:57.038Z,164.617
2022-11-26T00:28:17.081Z,164.617
2022-11-26T00:28:37.145Z,164.633
2022-11-26T00:28:57.179Z,164.633
2022-11-26T00:29:17.272Z,164.633
2022-11-26T00:29:37.306Z,164.633
2022-11-26T00:29:57.359Z,164.65
2022-11-26T00:30:17.428Z,164.65
2022-11-26T00:30:37.586Z,164.633
2022-11-26T00:30:57.562Z,164.633
2022-11-26T00:31:17.680Z,164.65
2022-11-26T00:31:37.822Z,164.633
2022-11-26T00:31:57.821Z,164.633
2022-11-26T00:32:17.786Z,164.633
2022-11-26T00:32:37.842Z,164.633
2022-11-26T00:32:57.890Z,164.633
2022-11-26T00:33:17.937Z,164.633
2022-11-26T00:33:37.987Z,164.633
2022-11-26T00:33:58.032Z,164.617
2022-11-26T00:34:18.099Z,164.633
2022-11-26T00:34:38.442Z,164.633
2022-11-26T00:34:58.184Z,164.633
2022-11-26T00:35:18.225Z,164.633
2022-11-26T00:35:38.382Z,164.633
2022-11-26T00:35:58.347Z,164.633
2022-11-26T00:36:18.377Z,164.633
2022-11-26T00:36:38.464Z,164.633
2022-11-26T00:36:58.538Z,164.683
2022-11-26T00:37:18.627Z,164.617
2022-11-26T00:37:38.666Z,164.633
2022-11-26T00:37:58.726Z,164.583
2022-11-26T00:38:18.796Z,164.583
2022-11-26T00:38:38.836Z,164.617
2022-11-26T00:38:58.905Z,164.633
2022-11-26T00:39:18.934Z,164.617
2022-11-26T00:39:38.976Z,164.633
2022-11-26T00:39:59.049Z,164.633
2022-11-26T00:40:19.144Z,164.567
2022-11-26T00:40:39.294Z,164.633
2022-11-26T00:40:59.298Z,164.633
2022-11-26T00:41:19.306Z,164.65
2022-11-26T00:41:39.382Z,164.633
2022-11-26T00:41:59.445Z,164.65
2022-11-26T00:42:19.478Z,164.65
2022-11-26T00:42:39.521Z,164.617
2022-11-26T00:43:01.917Z,164.617
2022-11-26T00:43:19.647Z,164.617
2022-11-26T00:43:39.685Z,164.633
2022-11-26T00:43:59.743Z,164.633
2022-11-26T00:44:19.778Z,164.633
2022-11-26T00:44:40.250Z,164.65
2022-11-26T00:44:59.889Z,164.633
2022-11-26T00:45:19.917Z,164.633
2022-11-26T00:45:40.197Z,164.633
2022-11-26T00:46:00.213Z,164.583
2022-11-26T00:46:20.218Z,164.65
2022-11-26T00:46:40.195Z,164.617
2022-11-26T00:47:00.234Z,164.633
2022-11-26T00:47:20.316Z,164.633
2022-11-26T00:47:40.366Z,164.617
2022-11-26T00:48:00.430Z,164.633
2022-11-26T00:48:20.510Z,164.633
2022-11-26T00:48:40.558Z,164.633
2022-11-26T00:49:00.595Z,164.617
2022-11-26T00:49:20.663Z,164.633
2022-11-26T00:49:40.750Z,164.633
2022-11-26T00:50:00.832Z,164.583
2022-11-26T00:50:20.896Z,164.633
2022-11-26T00:50:41.047Z,164.583
2022-11-26T00:51:01.027Z,164.583
2022-11-26T00:51:21.120Z,164.633
2022-11-26T00:51:41.151Z,164.617
2022-11-26T00:52:01.256Z,164.617
2022-11-26T00:52:21.314Z,164.583
2022-11-26T00:52:41.348Z,164.583
2022-11-26T00:53:01.393Z,164.583
2022-11-26T00:53:21.446Z,164.583
2022-11-26T00:53:41.489Z,164.617
2022-11-26T00:54:01.539Z,164.583
2022-11-26T00:54:21.610Z,164.617
2022-11-26T00:54:41.647Z,164.583
2022-11-26T00:55:01.697Z,164.583
2022-11-26T00:55:21.786Z,164.617
2022-11-26T00:55:41.913Z,164.617
2022-11-26T00:56:01.880Z,164.617
2022-11-26T00:56:21.961Z,164.617
2022-11-26T00:56:41.995Z,164.617
2022-11-26T00:57:02.062Z,164.583
2022-11-26T00:57:22.121Z,164.617
2022-11-26T00:57:42.143Z,164.617
2022-11-26T00:58:02.211Z,164.617
2022-11-26T00:58:22.287Z,164.633
2022-11-26T00:58:42.298Z,164.633
2022-11-26T00:59:02.404Z,164.617
2022-11-26T00:59:22.466Z,164.583
2022-11-26T00:59:42.545Z,164.617
2022-11-26T01:00:02.629Z,164.617
2022-11-26T01:00:22.682Z,164.617
2022-11-26T01:00:42.885Z,164.633
2022-11-26T01:01:02.878Z,164.583
2022-11-26T01:01:22.915Z,164.617
2022-11-26T01:01:42.893Z,164.583
2022-11-26T01:02:02.987Z,164.617
2022-11-26T01:02:23.068Z,164.583
2022-11-26T01:02:43.171Z,164.617
2022-11-26T01:03:03.151Z,164.617
2022-11-26T01:03:23.212Z,164.617
2022-11-26T01:03:43.284Z,164.583
2022-11-26T01:04:03.371Z,164.583
2022-11-26T01:04:23.416Z,164.583
2022-11-26T01:04:43.488Z,164.583
2022-11-26T01:05:03.558Z,164.583
2022-11-26T01:05:23.733Z,164.617
2022-11-26T01:05:43.794Z,164.617
2022-11-26T01:06:03.754Z,164.633
2022-11-26T01:06:23.809Z,164.583
2022-11-26T01:06:43.845Z,164.583
2022-11-26T01:07:03.894Z,164.617
2022-11-26T01:07:24.066Z,164.617
2022-11-26T01:07:44.142Z,164.583
2022-11-26T01:08:04.119Z,164.617
2022-11-26T01:08:24.176Z,164.617
2022-11-26T01:08:44.271Z,164.583
2022-11-26T01:09:04.315Z,164.633
2022-11-26T01:09:24.368Z,164.583
2022-11-26T01:09:44.415Z,164.617
2022-11-26T01:10:04.477Z,164.617
2022-11-26T01:10:24.571Z,164.583
2022-11-26T01:10:44.722Z,164.583
2022-11-26T01:11:04.672Z,164.583
2022-11-26T01:11:24.695Z,164.617
2022-11-26T01:11:44.758Z,164.617
2022-11-26T01:12:04.821Z,164.617
2022-11-26T01:12:24.871Z,164.617
2022-11-26T01:12:44.925Z,164.583
2022-11-26T01:13:04.997Z,164.617
2022-11-26T01:13:25.123Z,164.583
2022-11-26T01:13:45.088Z,164.617
2022-11-26T01:14:05.170Z,164.617
2022-11-26T01:14:25.237Z,164.583
2022-11-26T01:14:45.294Z,164.617
2022-11-26T01:15:05.308Z,164.583
2022-11-26T01:15:25.354Z,164.583
2022-11-26T01:15:45.500Z,164.633
2022-11-26T01:16:05.483Z,164.583
2022-11-26T01:16:25.653Z,164.617
2022-11-26T01:16:45.609Z,164.583
2022-11-26T01:17:05.643Z,164.617
2022-11-26T01:17:25.701Z,164.583
2022-11-26T01:17:45.751Z,164.617
2022-11-26T01:18:05.801Z,164.617
2022-11-26T01:18:25.868Z,164.583
2022-11-26T01:18:45.910Z,164.617
2022-11-26T01:19:05.947Z,164.617
2022-11-26T01:19:25.994Z,164.583
2022-11-26T01:19:46.051Z,164.617
2022-11-26T01:20:06.108Z,164.617
2022-11-26T01:20:26.181Z,164.617
2022-11-26T01:20:46.357Z,164.617
2022-11-26T01:21:06.315Z,164.617
2022-11-26T01:21:26.327Z,164.617
2022-11-26T01:21:46.375Z,164.617
2022-11-26T01:22:06.426Z,164.583
2022-11-26T01:22:26.495Z,164.617
2022-11-26T01:22:46.581Z,164.583
2022-11-26T01:23:06.655Z,164.583
2022-11-26T01:23:26.692Z,164.617
2022-11-26T01:23:46.771Z,164.617
2022-11-26T01:24:06.816Z,164.583
2022-11-26T01:24:26.883Z,164.617
2022-11-26T01:24:46.949Z,164.583
2022-11-26T01:25:06.979Z,164.617
2022-11-26T01:25:27.071Z,164.617
2022-11-26T01:25:47.238Z,164.583
2022-11-26T01:26:07.162Z,164.583
2022-11-26T01:26:27.231Z,164.617
2022-11-26T01:26:47.292Z,164.617
2022-11-26T01:27:07.370Z,164.617
2022-11-26T01:27:27.428Z,164.583
2022-11-26T01:27:47.478Z,164.583
2022-11-26T01:28:07.528Z,164.583
2022-11-26T01:28:27.611Z,164.583
2022-11-26T01:28:47.698Z,164.633
2022-11-26T01:29:07.753Z,164.633
2022-11-26T01:29:27.816Z,164.65
2022-11-26T01:29:47.874Z,164.65
2022-11-26T01:30:07.969Z,164.633
2022-11-26T01:30:28.001Z,164.65
2022-11-26T01:30:48.207Z,164.633
2022-11-26T01:31:08.312Z,164.633
2022-11-26T01:31:28.269Z,164.65
2022-11-26T01:31:48.366Z,164.617
2022-11-26T01:32:08.444Z,164.633
2022-11-26T01:32:29.698Z,164.617
2022-11-26T01:32:48.472Z,164.583
2022-11-26T01:33:08.554Z,164.633
2022-11-26T01:33:28.671Z,164.633
2022-11-26T01:33:48.653Z,164.633
2022-11-26T01:34:08.740Z,164.633
2022-11-26T01:34:28.820Z,164.617
2022-11-26T01:34:48.886Z,164.633
2022-11-26T01:35:08.962Z,164.617
2022-11-26T01:35:29.013Z,164.617
2022-11-26T01:35:49.253Z,164.633
2022-11-26T01:36:09.125Z,164.617
2022-11-26T01:36:29.168Z,164.617
2022-11-26T01:36:49.328Z,164.583
2022-11-26T01:37:09.319Z,164.65
2022-11-26T01:37:29.371Z,164.633
2022-11-26T01:37:49.437Z,164.617
2022-11-26T01:38:09.523Z,164.633
2022-11-26T01:38:29.584Z,164.617
2022-11-26T01:38:49.635Z,164.65
2022-11-26T01:39:09.710Z,164.633
2022-11-26T01:39:29.767Z,164.65
2022-11-26T01:39:49.843Z,164.617
2022-11-26T01:40:09.892Z,164.65
2022-11-26T01:40:29.967Z,164.633
2022-11-26T01:40:50.163Z,164.617
2022-11-26T01:41:10.111Z,164.65
2022-11-26T01:41:30.137Z,164.633
2022-11-26T01:41:50.208Z,164.617
2022-11-26T01:42:10.275Z,164.617
2022-11-26T01:42:30.438Z,164.617
2022-11-26T01:42:50.408Z,164.633
2022-11-26T01:43:10.464Z,164.583
2022-11-26T01:43:30.528Z,164.617
2022-11-26T01:43:50.607Z,164.617
2022-11-26T01:44:10.639Z,164.567
2022-11-26T01:44:30.722Z,164.617
2022-11-26T01:44:50.807Z,164.583
2022-11-26T01:45:10.857Z,164.617
2022-11-26T01:45:30.934Z,164.633
2022-11-26T01:45:51.112Z,164.567
2022-11-26T01:46:11.083Z,164.583
2022-11-26T01:46:31.095Z,164.583
2022-11-26T01:46:51.159Z,164.617
2022-11-26T01:47:11.229Z,164.617
2022-11-26T01:47:31.267Z,164.617
2022-11-26T01:47:51.315Z,164.617
2022-11-26T01:48:11.338Z,164.617
2022-11-26T01:48:31.421Z,164.617
2022-11-26T01:48:51.493Z,164.583
2022-11-26T01:49:11.545Z,164.617
2022-11-26T01:49:31.630Z,164.567
2022-11-26T01:49:51.681Z,164.617
2022-11-26T01:50:11.736Z,164.617
2022-11-26T01:50:31.805Z,164.617
2022-11-26T01:50:51.994Z,164.617
2022-11-26T01:51:11.906Z,164.617
2022-11-26T01:51:31.970Z,164.633
2022-11-26T01:51:52.028Z,164.583
2022-11-26T01:52:12.097Z,164.617
2022-11-26T01:52:32.179Z,164.617
2022-11-26T01:52:52.224Z,164.583
2022-11-26T01:53:12.287Z,164.617
2022-11-26T01:53:32.363Z,164.583
2022-11-26T01:53:52.426Z,164.617
2022-11-26T01:54:12.470Z,164.583
2022-11-26T01:54:32.530Z,164.617
2022-11-26T01:54:52.594Z,164.583
2022-11-26T01:55:12.652Z,164.617
2022-11-26T01:55:32.745Z,164.583
2022-11-26T01:55:52.900Z,164.583
2022-11-26T01:56:12.841Z,164.617
2022-11-26T01:56:32.904Z,164.583
2022-11-26T01:56:52.983Z,164.617
2022-11-26T01:57:13.047Z,164.617
2022-11-26T01:57:33.119Z,164.617
2022-11-26T01:57:53.180Z,164.583
2022-11-26T01:58:13.246Z,164.583
2022-11-26T01:58:38.334Z,164.583
2022-11-26T01:58:53.402Z,164.617
2022-11-26T01:59:13.477Z,164.583
2022-11-26T01:59:33.525Z,164.617
2022-11-26T01:59:53.579Z,164.617
2022-11-26T02:00:13.654Z,164.617
2022-11-26T02:00:33.723Z,164.617
2022-11-26T02:00:54.018Z,164.583
2022-11-26T02:01:13.902Z,164.617
2022-11-26T02:01:33.999Z,164.583
2022-11-26T02:01:54.043Z,164.617
2022-11-26T02:02:14.099Z,164.617
2022-11-26T02:02:34.167Z,164.583
2022-11-26T02:02:54.180Z,164.567
2022-11-26T02:03:14.237Z,164.583
2022-11-26T02:03:34.296Z,164.617
2022-11-26T02:03:54.348Z,164.583
2022-11-26T02:04:14.431Z,164.583
2022-11-26T02:04:34.505Z,164.617
2022-11-26T02:04:54.545Z,164.583
2022-11-26T02:05:14.599Z,164.617
2022-11-26T02:05:34.664Z,164.583
2022-11-26T02:05:54.826Z,164.617
2022-11-26T02:06:14.756Z,164.583
2022-11-26T02:06:34.859Z,164.617
2022-11-26T02:06:54.904Z,164.617
2022-11-26T02:07:15.014Z,164.617
2022-11-26T02:07:35.057Z,164.617
2022-11-26T02:07:55.245Z,164.617
2022-11-26T02:08:15.158Z,164.583
2022-11-26T02:08:35.225Z,164.583
2022-11-26T02:08:55.309Z,164.583
2022-11-26T02:09:15.381Z,164.583
2022-11-26T02:09:35.444Z,164.583
2022-11-26T02:09:55.524Z,164.567
2022-11-26T02:10:15.565Z,164.583
2022-11-26T02:10:35.628Z,164.567
2022-11-26T02:10:55.797Z,164.567
2022-11-26T02:11:15.756Z,164.617
2022-11-26T02:11:35.838Z,164.583
2022-11-26T02:11:55.923Z,164.567
2022-11-26T02:12:15.985Z,164.583
2022-11-26T02:12:36.039Z,164.567
2022-11-26T02:12:56.101Z,164.533
2022-11-26T02:13:16.139Z,164.633
2022-11-26T02:13:36.190Z,164.567
2022-11-26T02:13:56.251Z,164.583
2022-11-26T02:14:16.316Z,164.583
2022-11-26T02:14:36.818Z,164.617
2022-11-26T02:14:56.423Z,164.617
2022-11-26T02:15:16.500Z,164.617
2022-11-26T02:15:36.577Z,164.583
2022-11-26T02:15:56.749Z,164.583
2022-11-26T02:16:16.699Z,164.583
2022-11-26T02:16:36.798Z,164.583
2022-11-26T02:16:56.854Z,164.583
2022-11-26T02:17:16.868Z,164.617
2022-11-26T02:17:36.899Z,164.617
2022-11-26T02:17:56.973Z,164.617
2022-11-26T02:18:17.032Z,164.583
2022-11-26T02:18:37.099Z,164.583
2022-11-26T02:18:57.182Z,164.583
2022-11-26T02:19:17.237Z,164.617
2022-11-26T02:19:37.270Z,164.617
2022-11-26T02:19:57.303Z,164.583
2022-11-26T02:20:17.368Z,164.583
2022-11-26T02:20:37.416Z,164.583
2022-11-26T02:20:57.591Z,164.617
2022-11-26T02:21:17.533Z,164.617
2022-11-26T02:21:37.601Z,164.617
2022-11-26T02:21:57.673Z,164.617
2022-11-26T02:22:17.739Z,164.583
2022-11-26T02:22:37.789Z,164.583
2022-11-26T02:22:57.839Z,164.567
2022-11-26T02:23:17.968Z,164.533
2022-11-26T02:23:38.006Z,164.533
2022-11-26T02:23:58.109Z,164.567
2022-11-26T02:24:18.189Z,164.617
2022-11-26T02:24:38.525Z,164.583
2022-11-26T02:24:58.295Z,164.567
2022-11-26T02:25:18.342Z,164.533
2022-11-26T02:25:38.385Z,164.567
2022-11-26T02:25:58.664Z,164.567
2022-11-26T02:26:18.531Z,164.567
2022-11-26T02:26:38.586Z,164.533
2022-11-26T02:26:58.640Z,164.533
2022-11-26T02:27:18.711Z,164.533
2022-11-26T02:27:38.798Z,164.567
2022-11-26T02:27:58.849Z,164.567
2022-11-26T02:28:18.869Z,164.567
2022-11-26T02:28:38.967Z,164.583
2022-11-26T02:28:59.013Z,164.567
2022-11-26T02:29:19.061Z,164.583
2022-11-26T02:29:39.113Z,164.583
2022-11-26T02:29:59.188Z,164.567
2022-11-26T02:30:19.261Z,164.567
2022-11-26T02:30:39.289Z,164.567
2022-11-26T02:30:59.585Z,164.567
2022-11-26T02:31:19.523Z,164.583
2022-11-26T02:31:39.557Z,164.617
2022-11-26T02:31:59.699Z,164.617
2022-11-26T02:32:19.662Z,164.617
2022-11-26T02:32:39.737Z,164.617
2022-11-26T02:32:59.824Z,164.583
2022-11-26T02:33:19.881Z,164.583
2022-11-26T02:33:40.064Z,164.617
2022-11-26T02:34:00.045Z,164.617
2022-11-26T02:34:20.075Z,164.583
2022-11-26T02:34:40.529Z,164.583
2022-11-26T02:35:00.232Z,164.567
2022-11-26T02:35:20.294Z,164.617
2022-11-26T02:35:40.376Z,164.617
2022-11-26T02:36:00.580Z,164.633
2022-11-26T02:36:20.515Z,164.583
2022-11-26T02:36:40.573Z,164.533
2022-11-26T02:37:00.635Z,164.583
2022-11-26T02:37:20.697Z,164.567
2022-11-26T02:37:40.764Z,164.583
2022-11-26T02:38:00.859Z,164.567
2022-11-26T02:38:20.897Z,164.533
2022-11-26T02:38:41.001Z,164.567
2022-11-26T02:39:01.058Z,164.583
2022-11-26T02:39:21.159Z,164.583
2022-11-26T02:39:41.222Z,164.567
2022-11-26T02:40:01.285Z,164.567
2022-11-26T02:40:21.372Z,164.583
2022-11-26T02:40:41.446Z,164.567
2022-11-26T02:41:01.952Z,164.567
2022-11-26T02:41:21.591Z,164.567
2022-11-26T02:41:41.654Z,164.583
2022-11-26T02:42:01.694Z,164.567
2022-11-26T02:42:21.780Z,164.533
2022-11-26T02:42:41.826Z,164.567
2022-11-26T02:43:01.893Z,164.617
2022-11-26T02:43:21.929Z,164.567
2022-11-26T02:43:41.996Z,164.567
2022-11-26T02:44:02.109Z,164.533
2022-11-26T02:44:22.139Z,164.567
2022-11-26T02:44:42.183Z,164.583
2022-11-26T02:45:02.257Z,164.567
2022-11-26T02:45:22.335Z,164.567
2022-11-26T02:45:42.591Z,164.567
2022-11-26T02:46:02.655Z,164.567
2022-11-26T02:46:22.696Z,164.567
2022-11-26T02:46:42.648Z,164.567
2022-11-26T02:47:02.731Z,164.567
2022-11-26T02:47:22.827Z,164.533
2022-11-26T02:47:42.866Z,164.583
2022-11-26T02:48:02.911Z,164.583
2022-11-26T02:48:22.968Z,164.567
2022-11-26T02:48:42.989Z,164.567
2022-11-26T02:49:03.074Z,164.567
2022-11-26T02:49:23.118Z,164.567
2022-11-26T02:49:43.178Z,164.567
2022-11-26T02:50:03.265Z,164.583
2022-11-26T02:50:23.308Z,164.533
2022-11-26T02:50:43.389Z,164.567
2022-11-26T02:51:03.576Z,164.583
2022-11-26T02:51:23.526Z,164.583
2022-11-26T02:51:43.569Z,164.567
2022-11-26T02:52:03.655Z,164.583
2022-11-26T02:52:23.690Z,164.567
2022-11-26T02:52:43.752Z,164.567
2022-11-26T02:53:03.785Z,164.567
2022-11-26T02:53:23.892Z,164.567
2022-11-26T02:53:43.947Z,164.583
2022-11-26T02:54:04.014Z,164.583
2022-11-26T02:54:24.047Z,164.583
2022-11-26T02:54:44.090Z,164.567
2022-11-26T02:55:04.119Z,164.567
2022-11-26T02:55:24.179Z,164.617
2022-11-26T02:55:44.229Z,164.567
2022-11-26T02:56:04.545Z,164.533
2022-11-26T02:56:24.357Z,164.567
2022-11-26T02:56:44.478Z,164.583
2022-11-26T02:57:04.564Z,164.567
2022-11-26T02:57:24.638Z,164.567
2022-11-26T02:57:44.737Z,164.567
2022-11-26T02:58:04.761Z,164.583
2022-11-26T02:58:24.816Z,164.567
2022-11-26T02:58:44.871Z,164.567
2022-11-26T02:59:04.922Z,164.533
2022-11-26T02:59:24.989Z,164.567
2022-11-26T02:59:45.047Z,164.567
2022-11-26T03:00:05.116Z,164.583
2022-11-26T03:00:25.175Z,164.567
2022-11-26T03:00:45.261Z,164.567
2022-11-26T03:01:05.526Z,164.567
2022-11-26T03:01:25.459Z,164.583
2022-11-26T03:01:45.416Z,164.567
2022-11-26T03:02:05.465Z,164.567
2022-11-26T03:02:25.508Z,164.533
2022-11-26T03:02:45.586Z,164.583
2022-11-26T03:03:05.627Z,164.567
2022-11-26T03:03:25.707Z,164.567
2022-11-26T03:03:45.821Z,164.583
2022-11-26T03:04:05.877Z,164.583
2022-11-26T03:04:25.955Z,164.567
2022-11-26T03:04:45.933Z,164.567
2022-11-26T03:05:05.997Z,164.567
2022-11-26T03:05:26.084Z,164.567
2022-11-26T03:05:46.140Z,164.567
2022-11-26T03:06:06.397Z,164.583
2022-11-26T03:06:26.262Z,164.567
2022-11-26T03:06:46.295Z,164.583
2022-11-26T03:07:06.403Z,164.567
2022-11-26T03:07:26.519Z,164.583
2022-11-26T03:07:46.742Z,164.567
2022-11-26T03:08:06.565Z,164.567
2022-11-26T03:08:26.654Z,164.583
2022-11-26T03:08:46.728Z,164.583
2022-11-26T03:09:06.767Z,164.567
2022-11-26T03:09:26.829Z,164.567
2022-11-26T03:09:46.873Z,164.567
2022-11-26T03:10:06.919Z,164.567
2022-11-26T03:10:26.990Z,164.567
2022-11-26T03:10:47.045Z,164.567
2022-11-26T03:11:07.206Z,164.567
2022-11-26T03:11:27.204Z,164.583
2022-11-26T03:11:47.301Z,164.567
2022-11-26T03:12:07.388Z,164.583
2022-11-26T03:12:27.385Z,164.567
2022-11-26T03:12:47.431Z,164.567
2022-11-26T03:13:07.471Z,164.567
2022-11-26T03:13:27.568Z,164.567
2022-11-26T03:13:47.619Z,164.583
2022-11-26T03:14:07.715Z,164.567
2022-11-26T03:14:27.790Z,164.533
2022-11-26T03:14:47.872Z,164.533
2022-11-26T03:15:07.917Z,164.567
2022-11-26T03:15:27.968Z,164.567
2022-11-26T03:15:48.059Z,164.533
2022-11-26T03:16:08.373Z,164.567
2022-11-26T03:16:28.242Z,164.533
2022-11-26T03:16:48.339Z,164.567
2022-11-26T03:17:08.314Z,164.567
2022-11-26T03:17:28.416Z,164.567
2022-11-26T03:17:48.463Z,164.567
2022-11-26T03:18:08.528Z,164.567
2022-11-26T03:18:28.589Z,164.583
2022-11-26T03:18:48.648Z,164.567
2022-11-26T03:19:08.708Z,164.567
2022-11-26T03:19:28.779Z,164.583
2022-11-26T03:19:48.837Z,164.567
2022-11-26T03:20:08.897Z,164.567
2022-11-26T03:20:28.975Z,164.567
2022-11-26T03:20:52.256Z,164.583
2022-11-26T03:21:09.300Z,164.567
2022-11-26T03:21:29.177Z,164.567
2022-11-26T03:21:49.234Z,164.567
2022-11-26T03:22:09.274Z,164.567
2022-11-26T03:22:29.346Z,164.567
2022-11-26T03:22:49.371Z,164.583
2022-11-26T03:23:09.427Z,164.583
2022-11-26T03:23:29.507Z,164.567
2022-11-26T03:23:49.591Z,164.583
2022-11-26T03:24:09.635Z,164.567
2022-11-26T03:24:29.760Z,164.533
2022-11-26T03:24:49.792Z,164.567
2022-11-26T03:25:09.824Z,164.533
2022-11-26T03:25:29.969Z,164.583
2022-11-26T03:25:49.978Z,164.567
2022-11-26T03:26:10.168Z,164.533
2022-11-26T03:26:30.130Z,164.567
2022-11-26T03:26:50.193Z,164.567
2022-11-26T03:27:10.263Z,164.567
2022-11-26T03:27:30.317Z,164.567
2022-11-26T03:27:50.375Z,164.567
2022-11-26T03:28:10.457Z,164.533
2022-11-26T03:28:30.567Z,164.583
2022-11-26T03:28:50.544Z,164.567
2022-11-26T03:29:10.577Z,164.567
2022-11-26T03:29:30.637Z,164.533
2022-11-26T03:29:50.689Z,164.583
2022-11-26T03:30:10.768Z,164.567
2022-11-26T03:30:30.825Z,164.567
2022-11-26T03:30:50.872Z,164.567
2022-11-26T03:31:11.153Z,164.533
2022-11-26T03:31:31.059Z,164.583
2022-11-26T03:31:51.062Z,164.567
2022-11-26T03:32:11.081Z,164.583
2022-11-26T03:32:31.195Z,164.567
2022-11-26T03:32:51.193Z,164.567
2022-11-26T03:33:11.248Z,164.567
2022-11-26T03:33:31.316Z,164.567
2022-11-26T03:33:51.385Z,164.533
2022-11-26T03:34:11.503Z,164.567
2022-11-26T03:34:31.509Z,164.583
2022-11-26T03:34:51.602Z,164.583
2022-11-26T03:35:11.649Z,164.533
2022-11-26T03:35:31.712Z,164.533
2022-11-26T03:35:51.792Z,164.567
2022-11-26T03:36:12.087Z,164.567
2022-11-26T03:36:31.985Z,164.567
2022-11-26T03:36:52.020Z,164.567
2022-11-26T03:37:12.092Z,164.583
2022-11-26T03:37:32.146Z,164.567
2022-11-26T03:37:52.218Z,164.583
2022-11-26T03:38:12.306Z,164.533
2022-11-26T03:38:32.365Z,164.567
2022-11-26T03:38:52.417Z,164.533
2022-11-26T03:39:12.510Z,164.567
2022-11-26T03:39:32.583Z,164.567
2022-11-26T03:39:52.638Z,164.583
2022-11-26T03:40:12.701Z,164.567
2022-11-26T03:40:32.796Z,164.567
2022-11-26T03:40:52.875Z,164.533
2022-11-26T03:41:13.076Z,164.533
2022-11-26T03:41:33.072Z,164.583
2022-11-26T03:41:53.125Z,164.533
2022-11-26T03:42:13.216Z,164.533
2022-11-26T03:42:33.277Z,164.567
2022-11-26T03:42:53.326Z,164.533
2022-11-26T03:43:13.380Z,164.533
2022-11-26T03:43:33.422Z,164.583
2022-11-26T03:43:53.527Z,164.567
2022-11-26T03:44:13.579Z,164.583
2022-11-26T03:44:33.627Z,164.567
2022-11-26T03:44:53.696Z,164.583
2022-11-26T03:45:13.744Z,164.567
2022-11-26T03:45:33.917Z,164.567
2022-11-26T03:45:53.971Z,164.583
2022-11-26T03:46:14.179Z,164.567
2022-11-26T03:46:33.984Z,164.583
2022-11-26T03:46:54.039Z,164.533
2022-11-26T03:47:14.117Z,164.567
2022-11-26T03:47:34.182Z,164.567
2022-11-26T03:47:54.248Z,164.533
2022-11-26T03:48:14.275Z,164.583
2022-11-26T03:48:34.321Z,164.567
2022-11-26T03:48:54.375Z,164.567
2022-11-26T03:49:14.434Z,164.567
2022-11-26T03:49:34.484Z,164.567
2022-11-26T03:49:54.514Z,164.567
2022-11-26T03:50:14.579Z,164.533
2022-11-26T03:50:34.630Z,164.533
2022-11-26T03:50:54.717Z,164.567
2022-11-26T03:51:15.005Z,164.567
2022-11-26T03:51:34.855Z,164.567
2022-11-26T03:51:54.900Z,164.533
2022-11-26T03:52:14.986Z,164.583
2022-11-26T03:52:35.033Z,164.583
2022-11-26T03:52:55.082Z,164.567
2022-11-26T03:53:15.127Z,164.583
2022-11-26T03:53:35.213Z,164.567
2022-11-26T03:53:55.256Z,164.567
2022-11-26T03:54:15.316Z,164.567
2022-11-26T03:54:35.623Z,164.567
2022-11-26T03:54:55.494Z,164.567
2022-11-26T03:55:15.532Z,164.533
2022-11-26T03:55:35.581Z,164.533
2022-11-26T03:55:55.626Z,164.567
2022-11-26T03:56:15.859Z,164.567
2022-11-26T03:56:35.795Z,164.533
2022-11-26T03:56:55.860Z,164.567
2022-11-26T03:57:15.873Z,164.533
2022-11-26T03:57:35.947Z,164.517
2022-11-26T03:57:55.981Z,164.533
2022-11-26T03:58:16.056Z,164.517
2022-11-26T03:58:36.164Z,164.517
2022-11-26T03:58:56.205Z,164.567
2022-11-26T03:59:16.261Z,164.583
2022-11-26T03:59:36.316Z,164.567
2022-11-26T03:59:56.360Z,164.517
2022-11-26T04:00:16.407Z,164.533
2022-11-26T04:00:36.471Z,164.567
2022-11-26T04:00:56.596Z,164.533
2022-11-26T04:01:16.801Z,164.517
2022-11-26T04:01:36.737Z,164.517
2022-11-26T04:01:56.782Z,164.533
2022-11-26T04:02:16.738Z,164.533
2022-11-26T04:02:36.870Z,164.533
2022-11-26T04:02:56.901Z,164.533